sensor_id;sensor_type;location;lat;lon;timestamp;pressure;altitude;pressure_sealevel;temperature;humidity
61488;BME280;47351;53.326;-6.298;2024-02-04T00:00:15;102231.91;;;8.39;100.00
61488;BME280;47351;53.326;-6.298;2024-02-04T00:03:07;102230.11;;;8.40;100.00
61488;BME280;47351;53.326;-6.298;2024-02-04T00:06:00;102227.64;;;8.40;100.00
61488;BME280;47351;53.326;-6.298;2024-02-04T00:08:51;102223.54;;;8.40;100.00
61488;BME280;47351;53.326;-6.298;2024-02-04T00:11:42;102227.49;;;8.39;100.00
61488;BME280;47351;53.326;-6.298;2024-02-04T00:14:33;102221.97;;;8.39;100.00
61488;BME280;47351;53.326;-6.298;2024-02-04T00:17:24;102221.40;;;8.40;100.00
61488;BME280;47351;53.326;-6.298;2024-02-04T00:20:19;102220.48;;;8.40;100.00
61488;BME280;47351;53.326;-6.298;2024-02-04T00:23:10;102219.02;;;8.40;100.00
61488;BME280;47351;53.326;-6.298;2024-02-04T00:26:00;102221.49;;;8.40;100.00
61488;BME280;47351;53.326;-6.298;2024-02-04T00:28:52;102216.21;;;8.40;100.00
61488;BME280;47351;53.326;-6.298;2024-02-04T00:31:42;102213.52;;;8.40;100.00
61488;BME280;47351;53.326;-6.298;2024-02-04T00:34:33;102211.41;;;8.40;100.00
61488;BME280;47351;53.326;-6.298;2024-02-04T00:37:24;102209.92;;;8.40;100.00
61488;BME280;47351;53.326;-6.298;2024-02-04T00:40:15;102207.52;;;8.42;100.00
61488;BME280;47351;53.326;-6.298;2024-02-04T00:43:06;102204.48;;;8.42;100.00
61488;BME280;47351;53.326;-6.298;2024-02-04T00:45:56;102210.16;;;8.42;100.00
61488;BME280;47351;53.326;-6.298;2024-02-04T00:48:49;102219.73;;;8.43;100.00
61488;BME280;47351;53.326;-6.298;2024-02-04T00:51:40;102215.99;;;8.43;100.00
61488;BME280;47351;53.326;-6.298;2024-02-04T00:54:30;102209.39;;;8.43;100.00
61488;BME280;47351;53.326;-6.298;2024-02-04T00:57:21;102210.31;;;8.43;100.00
61488;BME280;47351;53.326;-6.298;2024-02-04T01:00:13;102210.50;;;8.43;100.00
61488;BME280;47351;53.326;-6.298;2024-02-04T01:03:04;102214.88;;;8.43;100.00
61488;BME280;47351;53.326;-6.298;2024-02-04T01:05:54;102215.17;;;8.44;100.00
61488;BME280;47351;53.326;-6.298;2024-02-04T01:08:46;102214.88;;;8.46;100.00
61488;BME280;47351;53.326;-6.298;2024-02-04T01:11:36;102210.27;;;8.48;100.00
61488;BME280;47351;53.326;-6.298;2024-02-04T01:14:27;102209.94;;;8.50;100.00
61488;BME280;47351;53.326;-6.298;2024-02-04T01:17:18;102207.20;;;8.51;100.00
61488;BME280;47351;53.326;-6.298;2024-02-04T01:20:09;102201.83;;;8.52;100.00
61488;BME280;47351;53.326;-6.298;2024-02-04T01:23:00;102210.77;;;8.51;100.00
61488;BME280;47351;53.326;-6.298;2024-02-04T01:25:51;102202.91;;;8.52;100.00
61488;BME280;47351;53.326;-6.298;2024-02-04T01:28:42;102201.20;;;8.53;100.00
61488;BME280;47351;53.326;-6.298;2024-02-04T01:31:32;102200.23;;;8.54;100.00
61488;BME280;47351;53.326;-6.298;2024-02-04T01:34:23;102188.04;;;8.56;100.00
61488;BME280;47351;53.326;-6.298;2024-02-04T01:37:14;102184.94;;;8.57;100.00
61488;BME280;47351;53.326;-6.298;2024-02-04T01:40:05;102185.48;;;8.59;100.00
61488;BME280;47351;53.326;-6.298;2024-02-04T01:42:56;102178.82;;;8.60;100.00
61488;BME280;47351;53.326;-6.298;2024-02-04T01:45:47;102180.79;;;8.60;100.00
61488;BME280;47351;53.326;-6.298;2024-02-04T01:48:41;102177.09;;;8.59;100.00
61488;BME280;47351;53.326;-6.298;2024-02-04T01:51:31;102168.26;;;8.58;100.00
61488;BME280;47351;53.326;-6.298;2024-02-04T01:54:23;102165.79;;;8.58;100.00
61488;BME280;47351;53.326;-6.298;2024-02-04T01:57:16;102165.93;;;8.58;100.00
61488;BME280;47351;53.326;-6.298;2024-02-04T02:00:08;102166.80;;;8.59;100.00
61488;BME280;47351;53.326;-6.298;2024-02-04T02:02:59;102161.77;;;8.59;100.00
61488;BME280;47351;53.326;-6.298;2024-02-04T02:05:51;102155.17;;;8.60;100.00
61488;BME280;47351;53.326;-6.298;2024-02-04T02:08:43;102151.64;;;8.59;100.00
61488;BME280;47351;53.326;-6.298;2024-02-04T02:11:37;102141.92;;;8.58;100.00
61488;BME280;47351;53.326;-6.298;2024-02-04T02:14:30;102139.29;;;8.58;100.00
61488;BME280;47351;53.326;-6.298;2024-02-04T02:17:23;102144.23;;;8.59;100.00
61488;BME280;47351;53.326;-6.298;2024-02-04T02:20:16;102139.35;;;8.59;100.00
61488;BME280;47351;53.326;-6.298;2024-02-04T02:23:12;102134.08;;;8.61;100.00
61488;BME280;47351;53.326;-6.298;2024-02-04T02:26:05;102134.63;;;8.64;100.00
61488;BME280;47351;53.326;-6.298;2024-02-04T02:28:56;102131.77;;;8.66;100.00
61488;BME280;47351;53.326;-6.298;2024-02-04T02:31:47;102128.18;;;8.69;100.00
61488;BME280;47351;53.326;-6.298;2024-02-04T02:34:38;102121.42;;;8.71;100.00
61488;BME280;47351;53.326;-6.298;2024-02-04T02:37:32;102120.70;;;8.74;100.00
61488;BME280;47351;53.326;-6.298;2024-02-04T02:40:29;102119.14;;;8.76;100.00
61488;BME280;47351;53.326;-6.298;2024-02-04T02:43:20;102121.95;;;8.78;100.00
61488;BME280;47351;53.326;-6.298;2024-02-04T02:46:12;102113.81;;;8.80;100.00
61488;BME280;47351;53.326;-6.298;2024-02-04T02:49:03;102110.89;;;8.81;100.00
61488;BME280;47351;53.326;-6.298;2024-02-04T02:51:54;102111.91;;;8.82;100.00
61488;BME280;47351;53.326;-6.298;2024-02-04T02:54:45;102111.31;;;8.83;100.00
61488;BME280;47351;53.326;-6.298;2024-02-04T02:57:35;102108.19;;;8.85;100.00
61488;BME280;47351;53.326;-6.298;2024-02-04T03:00:26;102100.61;;;8.86;100.00
61488;BME280;47351;53.326;-6.298;2024-02-04T03:03:17;102099.70;;;8.86;100.00
61488;BME280;47351;53.326;-6.298;2024-02-04T03:06:08;102101.66;;;8.86;100.00
61488;BME280;47351;53.326;-6.298;2024-02-04T03:08:59;102100.88;;;8.85;100.00
61488;BME280;47351;53.326;-6.298;2024-02-04T03:11:49;102099.19;;;8.83;100.00
61488;BME280;47351;53.326;-6.298;2024-02-04T03:14:40;102095.73;;;8.81;100.00
61488;BME280;47351;53.326;-6.298;2024-02-04T03:17:31;102090.95;;;8.81;100.00
61488;BME280;47351;53.326;-6.298;2024-02-04T03:20:21;102093.79;;;8.81;100.00
61488;BME280;47351;53.326;-6.298;2024-02-04T03:23:13;102095.34;;;8.82;100.00
61488;BME280;47351;53.326;-6.298;2024-02-04T03:26:04;102093.41;;;8.82;100.00
61488;BME280;47351;53.326;-6.298;2024-02-04T03:28:54;102077.91;;;8.82;100.00
61488;BME280;47351;53.326;-6.298;2024-02-04T03:31:45;102070.44;;;8.82;100.00
61488;BME280;47351;53.326;-6.298;2024-02-04T03:34:36;102071.63;;;8.82;100.00
61488;BME280;47351;53.326;-6.298;2024-02-04T03:37:28;102073.83;;;8.85;100.00
61488;BME280;47351;53.326;-6.298;2024-02-04T03:40:19;102074.71;;;8.87;100.00
61488;BME280;47351;53.326;-6.298;2024-02-04T03:43:14;102075.90;;;8.90;100.00
61488;BME280;47351;53.326;-6.298;2024-02-04T03:46:05;102068.22;;;8.93;100.00
61488;BME280;47351;53.326;-6.298;2024-02-04T03:48:55;102065.41;;;8.94;100.00
61488;BME280;47351;53.326;-6.298;2024-02-04T03:51:46;102059.69;;;8.95;100.00
61488;BME280;47351;53.326;-6.298;2024-02-04T03:54:37;102051.23;;;8.94;100.00
61488;BME280;47351;53.326;-6.298;2024-02-04T03:57:28;102048.20;;;8.91;100.00
61488;BME280;47351;53.326;-6.298;2024-02-04T04:00:19;102051.80;;;8.88;100.00
61488;BME280;47351;53.326;-6.298;2024-02-04T04:03:11;102048.73;;;8.87;100.00
61488;BME280;47351;53.326;-6.298;2024-02-04T04:06:01;102043.52;;;8.85;100.00
61488;BME280;47351;53.326;-6.298;2024-02-04T04:08:52;102042.05;;;8.83;100.00
61488;BME280;47351;53.326;-6.298;2024-02-04T04:11:43;102040.45;;;8.83;100.00
61488;BME280;47351;53.326;-6.298;2024-02-04T04:14:34;102037.48;;;8.85;100.00
61488;BME280;47351;53.326;-6.298;2024-02-04T04:17:25;102026.86;;;8.86;100.00
61488;BME280;47351;53.326;-6.298;2024-02-04T04:20:15;102022.86;;;8.88;100.00
61488;BME280;47351;53.326;-6.298;2024-02-04T04:23:06;102020.64;;;8.89;100.00
61488;BME280;47351;53.326;-6.298;2024-02-04T04:25:57;102019.65;;;8.90;100.00
61488;BME280;47351;53.326;-6.298;2024-02-04T04:28:47;102014.80;;;8.91;100.00
61488;BME280;47351;53.326;-6.298;2024-02-04T04:31:38;102014.29;;;8.90;100.00
61488;BME280;47351;53.326;-6.298;2024-02-04T04:34:29;102011.92;;;8.89;100.00
61488;BME280;47351;53.326;-6.298;2024-02-04T04:37:19;102005.48;;;8.87;100.00
61488;BME280;47351;53.326;-6.298;2024-02-04T04:40:11;102003.71;;;8.84;100.00
61488;BME280;47351;53.326;-6.298;2024-02-04T04:43:02;102006.05;;;8.84;100.00
61488;BME280;47351;53.326;-6.298;2024-02-04T04:45:53;101996.83;;;8.83;100.00
61488;BME280;47351;53.326;-6.298;2024-02-04T04:48:45;102003.52;;;8.84;100.00
61488;BME280;47351;53.326;-6.298;2024-02-04T04:51:36;102003.06;;;8.86;100.00
61488;BME280;47351;53.326;-6.298;2024-02-04T04:54:28;101997.73;;;8.88;100.00
61488;BME280;47351;53.326;-6.298;2024-02-04T04:57:19;101994.95;;;8.89;100.00
61488;BME280;47351;53.326;-6.298;2024-02-04T05:00:10;101996.20;;;8.90;100.00
61488;BME280;47351;53.326;-6.298;2024-02-04T05:03:02;101995.64;;;8.90;100.00
61488;BME280;47351;53.326;-6.298;2024-02-04T05:05:53;101996.06;;;8.91;100.00
61488;BME280;47351;53.326;-6.298;2024-02-04T05:08:44;101990.10;;;8.92;100.00
61488;BME280;47351;53.326;-6.298;2024-02-04T05:11:34;101986.98;;;8.93;100.00
61488;BME280;47351;53.326;-6.298;2024-02-04T05:14:25;101972.67;;;8.94;100.00
61488;BME280;47351;53.326;-6.298;2024-02-04T05:17:16;101961.27;;;8.94;100.00
61488;BME280;47351;53.326;-6.298;2024-02-04T05:20:07;101965.95;;;8.94;100.00
61488;BME280;47351;53.326;-6.298;2024-02-04T05:22:58;101967.67;;;8.94;100.00
61488;BME280;47351;53.326;-6.298;2024-02-04T05:25:49;101972.54;;;8.96;100.00
61488;BME280;47351;53.326;-6.298;2024-02-04T05:28:40;101959.84;;;8.97;100.00
61488;BME280;47351;53.326;-6.298;2024-02-04T05:31:31;101958.68;;;8.96;100.00
61488;BME280;47351;53.326;-6.298;2024-02-04T05:34:21;101961.03;;;8.95;100.00
61488;BME280;47351;53.326;-6.298;2024-02-04T05:37:12;101963.70;;;8.95;100.00
61488;BME280;47351;53.326;-6.298;2024-02-04T05:40:03;101963.01;;;8.95;100.00
61488;BME280;47351;53.326;-6.298;2024-02-04T05:42:54;101968.98;;;8.94;100.00
61488;BME280;47351;53.326;-6.298;2024-02-04T05:45:45;101971.34;;;8.93;100.00
61488;BME280;47351;53.326;-6.298;2024-02-04T05:48:36;101971.76;;;8.95;100.00
61488;BME280;47351;53.326;-6.298;2024-02-04T05:51:31;101971.18;;;8.97;100.00
61488;BME280;47351;53.326;-6.298;2024-02-04T05:54:22;101965.83;;;9.00;100.00
61488;BME280;47351;53.326;-6.298;2024-02-04T05:57:13;101962.43;;;9.02;100.00
61488;BME280;47351;53.326;-6.298;2024-02-04T06:00:05;101959.36;;;9.05;100.00
61488;BME280;47351;53.326;-6.298;2024-02-04T06:02:57;101947.48;;;9.07;100.00
61488;BME280;47351;53.326;-6.298;2024-02-04T06:05:48;101950.06;;;9.08;100.00
61488;BME280;47351;53.326;-6.298;2024-02-04T06:08:39;101943.32;;;9.10;100.00
61488;BME280;47351;53.326;-6.298;2024-02-04T06:11:30;101939.19;;;9.13;100.00
61488;BME280;47351;53.326;-6.298;2024-02-04T06:14:22;101932.20;;;9.16;100.00
61488;BME280;47351;53.326;-6.298;2024-02-04T06:17:13;101927.48;;;9.19;100.00
61488;BME280;47351;53.326;-6.298;2024-02-04T06:20:04;101925.01;;;9.23;100.00
61488;BME280;47351;53.326;-6.298;2024-02-04T06:22:56;101915.86;;;9.26;100.00
61488;BME280;47351;53.326;-6.298;2024-02-04T06:25:47;101898.28;;;9.28;100.00
61488;BME280;47351;53.326;-6.298;2024-02-04T06:28:38;101901.14;;;9.28;100.00
61488;BME280;47351;53.326;-6.298;2024-02-04T06:31:29;101901.94;;;9.26;100.00
61488;BME280;47351;53.326;-6.298;2024-02-04T06:34:21;101902.07;;;9.25;100.00
61488;BME280;47351;53.326;-6.298;2024-02-04T06:37:11;101902.83;;;9.24;100.00
61488;BME280;47351;53.326;-6.298;2024-02-04T06:40:02;101901.90;;;9.25;100.00
61488;BME280;47351;53.326;-6.298;2024-02-04T06:42:53;101899.91;;;9.27;100.00
61488;BME280;47351;53.326;-6.298;2024-02-04T06:45:44;101889.63;;;9.34;100.00
61488;BME280;47351;53.326;-6.298;2024-02-04T06:48:35;101883.44;;;9.38;100.00
61488;BME280;47351;53.326;-6.298;2024-02-04T06:51:26;101870.27;;;9.42;100.00
61488;BME280;47351;53.326;-6.298;2024-02-04T06:54:17;101864.57;;;9.47;100.00
61488;BME280;47351;53.326;-6.298;2024-02-04T06:57:07;101856.39;;;9.51;100.00
61488;BME280;47351;53.326;-6.298;2024-02-04T06:59:58;101859.08;;;9.55;100.00
61488;BME280;47351;53.326;-6.298;2024-02-04T07:02:49;101856.11;;;9.59;100.00
61488;BME280;47351;53.326;-6.298;2024-02-04T07:05:40;101840.70;;;9.60;100.00
61488;BME280;47351;53.326;-6.298;2024-02-04T07:08:31;101843.39;;;9.59;100.00
61488;BME280;47351;53.326;-6.298;2024-02-04T07:11:22;101848.73;;;9.60;100.00
61488;BME280;47351;53.326;-6.298;2024-02-04T07:14:12;101846.36;;;9.62;100.00
61488;BME280;47351;53.326;-6.298;2024-02-04T07:17:03;101849.80;;;9.66;100.00
61488;BME280;47351;53.326;-6.298;2024-02-04T07:19:54;101851.69;;;9.71;100.00
61488;BME280;47351;53.326;-6.298;2024-02-04T07:22:45;101848.10;;;9.76;100.00
61488;BME280;47351;53.326;-6.298;2024-02-04T07:25:37;101840.31;;;9.82;100.00
61488;BME280;47351;53.326;-6.298;2024-02-04T07:28:27;101836.77;;;9.88;100.00
61488;BME280;47351;53.326;-6.298;2024-02-04T07:31:19;101825.64;;;9.93;100.00
61488;BME280;47351;53.326;-6.298;2024-02-04T07:34:11;101823.14;;;9.97;100.00
61488;BME280;47351;53.326;-6.298;2024-02-04T07:37:02;101824.88;;;10.00;100.00
61488;BME280;47351;53.326;-6.298;2024-02-04T07:39:53;101813.34;;;10.02;100.00
61488;BME280;47351;53.326;-6.298;2024-02-04T07:42:44;101810.64;;;10.04;100.00
61488;BME280;47351;53.326;-6.298;2024-02-04T07:45:36;101808.63;;;10.09;100.00
61488;BME280;47351;53.326;-6.298;2024-02-04T07:48:27;101802.67;;;10.14;100.00
61488;BME280;47351;53.326;-6.298;2024-02-04T07:51:18;101804.34;;;10.17;100.00
61488;BME280;47351;53.326;-6.298;2024-02-04T07:54:09;101808.18;;;10.20;100.00
61488;BME280;47351;53.326;-6.298;2024-02-04T07:57:00;101807.42;;;10.24;100.00
61488;BME280;47351;53.326;-6.298;2024-02-04T07:59:51;101794.13;;;10.27;100.00
61488;BME280;47351;53.326;-6.298;2024-02-04T08:02:43;101792.42;;;10.30;100.00
61488;BME280;47351;53.326;-6.298;2024-02-04T08:05:34;101788.36;;;10.32;100.00
61488;BME280;47351;53.326;-6.298;2024-02-04T08:08:26;101789.25;;;10.34;100.00
61488;BME280;47351;53.326;-6.298;2024-02-04T08:11:17;101785.97;;;10.37;100.00
61488;BME280;47351;53.326;-6.298;2024-02-04T08:14:08;101785.83;;;10.41;100.00
61488;BME280;47351;53.326;-6.298;2024-02-04T08:16:59;101793.41;;;10.46;100.00
61488;BME280;47351;53.326;-6.298;2024-02-04T08:19:50;101784.77;;;10.49;100.00
61488;BME280;47351;53.326;-6.298;2024-02-04T08:22:43;101779.67;;;10.52;100.00
61488;BME280;47351;53.326;-6.298;2024-02-04T08:25:34;101776.17;;;10.55;100.00
61488;BME280;47351;53.326;-6.298;2024-02-04T08:28:25;101767.69;;;10.59;100.00
61488;BME280;47351;53.326;-6.298;2024-02-04T08:31:16;101762.17;;;10.63;100.00
61488;BME280;47351;53.326;-6.298;2024-02-04T08:34:07;101757.57;;;10.66;100.00
61488;BME280;47351;53.326;-6.298;2024-02-04T08:36:58;101753.84;;;10.70;100.00
61488;BME280;47351;53.326;-6.298;2024-02-04T08:39:49;101755.53;;;10.76;100.00
61488;BME280;47351;53.326;-6.298;2024-02-04T08:42:40;101748.45;;;10.81;100.00
61488;BME280;47351;53.326;-6.298;2024-02-04T08:45:31;101743.54;;;10.86;100.00
61488;BME280;47351;53.326;-6.298;2024-02-04T08:48:22;101740.71;;;10.90;100.00
61488;BME280;47351;53.326;-6.298;2024-02-04T08:51:13;101744.05;;;10.95;100.00
61488;BME280;47351;53.326;-6.298;2024-02-04T08:54:05;101739.59;;;11.00;100.00
61488;BME280;47351;53.326;-6.298;2024-02-04T08:56:56;101744.67;;;11.05;100.00
61488;BME280;47351;53.326;-6.298;2024-02-04T08:59:47;101744.27;;;11.08;100.00
61488;BME280;47351;53.326;-6.298;2024-02-04T09:02:38;101747.62;;;11.08;100.00
61488;BME280;47351;53.326;-6.298;2024-02-04T09:05:29;101733.14;;;11.08;100.00
61488;BME280;47351;53.326;-6.298;2024-02-04T09:08:20;101734.88;;;11.09;100.00
61488;BME280;47351;53.326;-6.298;2024-02-04T09:11:11;101740.46;;;11.10;100.00
61488;BME280;47351;53.326;-6.298;2024-02-04T09:14:07;101732.06;;;11.12;100.00
61488;BME280;47351;53.326;-6.298;2024-02-04T09:16:59;101733.96;;;11.16;100.00
61488;BME280;47351;53.326;-6.298;2024-02-04T09:19:49;101735.41;;;11.20;100.00
61488;BME280;47351;53.326;-6.298;2024-02-04T09:22:41;101727.21;;;11.23;100.00
61488;BME280;47351;53.326;-6.298;2024-02-04T09:25:32;101729.45;;;11.28;100.00
61488;BME280;47351;53.326;-6.298;2024-02-04T09:28:23;101728.17;;;11.32;100.00
61488;BME280;47351;53.326;-6.298;2024-02-04T09:31:15;101727.67;;;11.36;100.00
61488;BME280;47351;53.326;-6.298;2024-02-04T09:34:07;101719.77;;;11.40;100.00
61488;BME280;47351;53.326;-6.298;2024-02-04T09:36:58;101713.00;;;11.44;100.00
61488;BME280;47351;53.326;-6.298;2024-02-04T09:39:49;101713.25;;;11.47;100.00
61488;BME280;47351;53.326;-6.298;2024-02-04T09:42:40;101715.04;;;11.51;100.00
61488;BME280;47351;53.326;-6.298;2024-02-04T09:45:32;101716.30;;;11.52;100.00
61488;BME280;47351;53.326;-6.298;2024-02-04T09:48:23;101711.58;;;11.54;100.00
61488;BME280;47351;53.326;-6.298;2024-02-04T09:51:16;101711.52;;;11.56;100.00
61488;BME280;47351;53.326;-6.298;2024-02-04T09:54:08;101712.45;;;11.57;100.00
61488;BME280;47351;53.326;-6.298;2024-02-04T09:57:00;101715.21;;;11.59;100.00
61488;BME280;47351;53.326;-6.298;2024-02-04T09:59:52;101722.08;;;11.60;100.00
61488;BME280;47351;53.326;-6.298;2024-02-04T10:02:44;101733.54;;;11.62;100.00
61488;BME280;47351;53.326;-6.298;2024-02-04T10:05:35;101731.80;;;11.65;100.00
61488;BME280;47351;53.326;-6.298;2024-02-04T10:08:26;101732.30;;;11.68;100.00
61488;BME280;47351;53.326;-6.298;2024-02-04T10:11:17;101733.96;;;11.69;100.00
61488;BME280;47351;53.326;-6.298;2024-02-04T10:14:08;101733.47;;;11.72;99.93
61488;BME280;47351;53.326;-6.298;2024-02-04T10:16:59;101732.89;;;11.78;99.96
61488;BME280;47351;53.326;-6.298;2024-02-04T10:19:50;101739.77;;;11.80;100.00
61488;BME280;47351;53.326;-6.298;2024-02-04T10:22:41;101744.11;;;11.77;100.00
61488;BME280;47351;53.326;-6.298;2024-02-04T10:25:32;101742.84;;;11.75;100.00
61488;BME280;47351;53.326;-6.298;2024-02-04T10:28:23;101746.96;;;11.73;100.00
61488;BME280;47351;53.326;-6.298;2024-02-04T10:31:14;101747.49;;;11.72;100.00
61488;BME280;47351;53.326;-6.298;2024-02-04T10:34:07;101744.24;;;11.72;100.00
61488;BME280;47351;53.326;-6.298;2024-02-04T10:36:58;101746.02;;;11.72;100.00
61488;BME280;47351;53.326;-6.298;2024-02-04T10:39:49;101743.80;;;11.75;100.00
61488;BME280;47351;53.326;-6.298;2024-02-04T10:42:40;101746.95;;;11.77;100.00
61488;BME280;47351;53.326;-6.298;2024-02-04T10:45:33;101745.02;;;11.83;100.00
61488;BME280;47351;53.326;-6.298;2024-02-04T10:48:27;101737.36;;;11.91;100.00
61488;BME280;47351;53.326;-6.298;2024-02-04T10:51:25;101731.19;;;11.99;99.68
61488;BME280;47351;53.326;-6.298;2024-02-04T10:54:16;101736.26;;;12.09;98.92
61488;BME280;47351;53.326;-6.298;2024-02-04T10:57:12;101734.77;;;12.15;98.60
61488;BME280;47351;53.326;-6.298;2024-02-04T11:00:04;101740.07;;;12.23;98.00
61488;BME280;47351;53.326;-6.298;2024-02-04T11:02:57;101739.10;;;12.33;97.03
61488;BME280;47351;53.326;-6.298;2024-02-04T11:05:49;101738.89;;;12.45;96.44
61488;BME280;47351;53.326;-6.298;2024-02-04T11:08:41;101739.36;;;12.57;95.74
61488;BME280;47351;53.326;-6.298;2024-02-04T11:11:33;101741.27;;;12.73;94.72
61488;BME280;47351;53.326;-6.298;2024-02-04T11:14:24;101740.87;;;12.77;94.63
61488;BME280;47351;53.326;-6.298;2024-02-04T11:17:26;101735.16;;;12.80;94.25
61488;BME280;47351;53.326;-6.298;2024-02-04T11:20:25;101738.77;;;12.88;93.10
61488;BME280;47351;53.326;-6.298;2024-02-04T11:23:26;101742.70;;;12.99;92.61
61488;BME280;47351;53.326;-6.298;2024-02-04T11:26:19;101741.98;;;13.10;91.63
61488;BME280;47351;53.326;-6.298;2024-02-04T11:29:10;101742.14;;;13.32;91.09
61488;BME280;47351;53.326;-6.298;2024-02-04T11:32:02;101740.58;;;13.54;90.41
61488;BME280;47351;53.326;-6.298;2024-02-04T11:34:54;101748.84;;;13.70;89.37
61488;BME280;47351;53.326;-6.298;2024-02-04T11:37:49;101743.67;;;13.79;88.87
61488;BME280;47351;53.326;-6.298;2024-02-04T11:40:41;101741.51;;;13.91;87.95
61488;BME280;47351;53.326;-6.298;2024-02-04T11:43:33;101744.56;;;13.98;87.47
61488;BME280;47351;53.326;-6.298;2024-02-04T11:46:27;101740.55;;;14.06;86.32
61488;BME280;47351;53.326;-6.298;2024-02-04T11:49:18;101742.90;;;14.04;85.96
61488;BME280;47351;53.326;-6.298;2024-02-04T11:52:18;101751.46;;;14.06;85.91
61488;BME280;47351;53.326;-6.298;2024-02-04T11:55:14;101741.17;;;14.03;85.81
61488;BME280;47351;53.326;-6.298;2024-02-04T11:58:06;101740.94;;;14.16;85.62
61488;BME280;47351;53.326;-6.298;2024-02-04T12:00:58;101742.99;;;14.17;84.60
61488;BME280;47351;53.326;-6.298;2024-02-04T12:03:50;101755.59;;;14.05;84.52
61488;BME280;47351;53.326;-6.298;2024-02-04T12:06:42;101751.05;;;13.85;85.24
61488;BME280;47351;53.326;-6.298;2024-02-04T12:09:34;101746.67;;;13.75;85.89
61488;BME280;47351;53.326;-6.298;2024-02-04T12:12:24;101749.58;;;13.62;86.44
61488;BME280;47351;53.326;-6.298;2024-02-04T12:15:16;101752.36;;;13.49;86.87
61488;BME280;47351;53.326;-6.298;2024-02-04T12:18:08;101756.90;;;13.42;87.24
61488;BME280;47351;53.326;-6.298;2024-02-04T12:20:59;101748.70;;;13.44;87.18
61488;BME280;47351;53.326;-6.298;2024-02-04T12:23:50;101742.16;;;13.72;86.60
61488;BME280;47351;53.326;-6.298;2024-02-04T12:26:41;101728.92;;;13.91;85.84
61488;BME280;47351;53.326;-6.298;2024-02-04T12:29:34;101726.13;;;14.03;84.61
61488;BME280;47351;53.326;-6.298;2024-02-04T12:32:26;101718.98;;;14.17;84.26
61488;BME280;47351;53.326;-6.298;2024-02-04T12:35:17;101707.23;;;14.29;83.39
61488;BME280;47351;53.326;-6.298;2024-02-04T12:38:08;101694.58;;;14.34;82.94
61488;BME280;47351;53.326;-6.298;2024-02-04T12:41:02;101702.81;;;14.32;82.45
61488;BME280;47351;53.326;-6.298;2024-02-04T12:43:54;101688.34;;;14.30;82.10
61488;BME280;47351;53.326;-6.298;2024-02-04T12:46:45;101689.02;;;14.30;81.75
61488;BME280;47351;53.326;-6.298;2024-02-04T12:49:36;101695.09;;;14.30;81.40
61488;BME280;47351;53.326;-6.298;2024-02-04T12:52:27;101695.77;;;14.31;80.70
61488;BME280;47351;53.326;-6.298;2024-02-04T12:55:21;101701.25;;;14.35;80.46
61488;BME280;47351;53.326;-6.298;2024-02-04T12:58:13;101709.19;;;14.49;80.36
61488;BME280;47351;53.326;-6.298;2024-02-04T13:01:06;101710.14;;;14.64;79.25
61488;BME280;47351;53.326;-6.298;2024-02-04T13:03:57;101711.55;;;14.78;78.57
61488;BME280;47351;53.326;-6.298;2024-02-04T13:06:48;101712.71;;;14.88;77.83
61488;BME280;47351;53.326;-6.298;2024-02-04T13:09:39;101713.17;;;14.97;76.92
61488;BME280;47351;53.326;-6.298;2024-02-04T13:12:30;101717.60;;;15.01;76.68
61488;BME280;47351;53.326;-6.298;2024-02-04T13:15:26;101717.77;;;14.99;76.29
61488;BME280;47351;53.326;-6.298;2024-02-04T13:18:16;101717.34;;;15.00;76.31
61488;BME280;47351;53.326;-6.298;2024-02-04T13:21:07;101723.16;;;14.96;75.73
61488;BME280;47351;53.326;-6.298;2024-02-04T13:23:58;101723.55;;;14.91;75.48
61488;BME280;47351;53.326;-6.298;2024-02-04T13:26:54;101721.14;;;14.88;75.23
61488;BME280;47351;53.326;-6.298;2024-02-04T13:30:05;101729.05;;;14.86;74.50
61488;BME280;47351;53.326;-6.298;2024-02-04T13:33:19;101720.06;;;14.81;74.71
61488;BME280;47351;53.326;-6.298;2024-02-04T13:36:17;101713.53;;;14.83;75.57
61488;BME280;47351;53.326;-6.298;2024-02-04T13:39:25;101713.15;;;14.89;74.92
61488;BME280;47351;53.326;-6.298;2024-02-04T13:42:28;101703.38;;;14.84;74.23
61488;BME280;47351;53.326;-6.298;2024-02-04T13:45:39;101699.04;;;14.84;75.13
61488;BME280;47351;53.326;-6.298;2024-02-04T13:48:49;101695.45;;;14.79;74.23
61488;BME280;47351;53.326;-6.298;2024-02-04T13:51:59;101705.55;;;14.80;74.42
61488;BME280;47351;53.326;-6.298;2024-02-04T13:55:21;101702.78;;;14.83;74.38
61488;BME280;47351;53.326;-6.298;2024-02-04T13:58:28;101702.58;;;14.83;74.51
61488;BME280;47351;53.326;-6.298;2024-02-04T14:01:27;101704.41;;;14.86;75.18
61488;BME280;47351;53.326;-6.298;2024-02-04T14:04:35;101705.69;;;14.91;74.95
61488;BME280;47351;53.326;-6.298;2024-02-04T14:07:36;101701.07;;;14.85;74.17
61488;BME280;47351;53.326;-6.298;2024-02-04T14:13:44;101707.70;;;14.79;74.04
61488;BME280;47351;53.326;-6.298;2024-02-04T14:20:29;101704.79;;;14.66;73.49
61488;BME280;47351;53.326;-6.298;2024-02-04T14:23:27;101701.64;;;14.54;73.12
61488;BME280;47351;53.326;-6.298;2024-02-04T14:26:24;101698.93;;;14.42;73.48
61488;BME280;47351;53.326;-6.298;2024-02-04T14:29:24;101694.84;;;14.33;73.80
61488;BME280;47351;53.326;-6.298;2024-02-04T14:32:25;101696.02;;;14.29;74.36
61488;BME280;47351;53.326;-6.298;2024-02-04T14:35:35;101705.20;;;14.25;74.41
61488;BME280;47351;53.326;-6.298;2024-02-04T14:38:45;101698.59;;;14.26;74.93
61488;BME280;47351;53.326;-6.298;2024-02-04T14:41:58;101694.15;;;14.31;74.17
61488;BME280;47351;53.326;-6.298;2024-02-04T14:48:09;101700.40;;;14.40;73.76
61488;BME280;47351;53.326;-6.298;2024-02-04T14:51:17;101704.77;;;14.41;73.17
61488;BME280;47351;53.326;-6.298;2024-02-04T14:54:14;101706.02;;;14.38;73.71
61488;BME280;47351;53.326;-6.298;2024-02-04T14:57:06;101710.91;;;14.30;73.91